Sommer S — WDG3830 — position and weather

sailwx.info

Track history (hours):
 
Tides and Currents Weather Stations Pressure Air Temp Water Temp Dewpoint Dewpoint Depression Visibility Wind Speed Wind Dir Waves Ship Positions

Sommer S

Owner: Shaver Transportation Company, Portland, OR. More information available from US FCC via Universal Licensing System and Coast Guard Vessel Documentation Center.

Last reported at 2018-Jul-19 14:55 UTC. Time now 2018-Jul-19 15:03 UTC.
Position N 45°38' W 122°44'.

Length 25 m; draft 16.5 m.

Type: Tug. MMSI: 367530080.

Date/timePositionNaut miles runAvg speedWind from/ knotsBaromVisibWave heightAir tempDewpointWater temp
2018-Jul-19 14:55N 45°38' W 122°44'0 0.0
2018-Jul-19 14:00N 45°38' W 122°44'0 0.0
2018-Jul-19 13:26N 45°38' W 122°44'0 0.0
2018-Jul-19 13:00N 45°38' W 122°44'0 0.0
2018-Jul-19 12:30N 45°38' W 122°44'0 0.0
2018-Jul-19 12:00N 45°38' W 122°44'0 0.0
2018-Jul-19 11:31N 45°38' W 122°44'0 0.0
2018-Jul-19 11:00N 45°38' W 122°44'0 0.0
2018-Jul-19 10:30N 45°38' W 122°44'0 0.0
2018-Jul-19 09:55N 45°38' W 122°44'0 0.0
2018-Jul-19 09:31N 45°38' W 122°44'0 0.0
2018-Jul-19 09:01N 45°38' W 122°44'0 0.0
2018-Jul-19 08:30N 45°38' W 122°44'0 0.1
2018-Jul-19 08:00N 45°38' W 122°44'1 2.6
2018-Jul-19 07:30N 45°38' W 122°42'0 0.1
2018-Jul-19 06:59N 45°38' W 122°42'1 1.4
2018-Jul-19 06:30N 45°38' W 122°43'1 1.5
2018-Jul-19 06:01N 45°38' W 122°42'3 5.1
2018-Jul-19 05:30N 45°39' W 122°45'0 0.8
2018-Jul-19 05:00N 45°39' W 122°44'1 1.7
2018-Jul-19 04:30N 45°39' W 122°46'0 0.1
2018-Jul-19 04:00N 45°39' W 122°46'0 0.0
2018-Jul-19 03:30N 45°39' W 122°46'0 0.1
2018-Jul-19 03:00N 45°39' W 122°46'2 3.1
2018-Jul-19 02:30N 45°38' W 122°44'2 3.1
2018-Jul-19 02:00N 45°39' W 122°45'0 0.0
2018-Jul-19 01:31N 45°39' W 122°45'0 0.0
2018-Jul-19 01:00N 45°39' W 122°45'0 0.0
2018-Jul-19 00:30N 45°39' W 122°45'0 0.0
2018-Jul-19 00:00N 45°39' W 122°45'0 0.0
2018-Jul-18 23:30N 45°39' W 122°45'0 0.0
2018-Jul-18 23:00N 45°39' W 122°45'0 0.0
2018-Jul-18 22:17N 45°39' W 122°45'0 0.4
2018-Jul-18 22:00N 45°39' W 122°45'1 2.9
2018-Jul-18 21:31N 45°38' W 122°47'3 5.1
2018-Jul-18 21:00N 45°38' W 122°43'1 1.3
2018-Jul-18 20:30N 45°38' W 122°42'0 0.0
2018-Jul-18 20:00N 45°38' W 122°42'2 4.2
2018-Jul-18 19:30N 45°39' W 122°45'0 0.0
2018-Jul-18 19:00N 45°39' W 122°45'0 0.0
2018-Jul-18 18:21N 45°39' W 122°45'0 0.0
2018-Jul-18 18:00N 45°39' W 122°45'0 0.0
2018-Jul-18 17:30N 45°39' W 122°45'0 0.0
2018-Jul-18 17:00N 45°39' W 122°45'0 0.0
2018-Jul-18 16:31N 45°39' W 122°45'0 0.0
2018-Jul-18 16:00N 45°39' W 122°45'0 0.0
2018-Jul-18 15:27N 45°39' W 122°45'0 0.0
2018-Jul-18 15:00N 45°39' W 122°45'0 0.0
2018-Jul-18 14:30N 45°39' W 122°45'0 0.0
2018-Jul-18 13:30N 45°39' W 122°45'0 0.0
2018-Jul-18 13:00N 45°39' W 122°45'0 0.0
2018-Jul-18 12:16N 45°39' W 122°45'0 0.0
2018-Jul-18 12:00N 45°39' W 122°45'0 0.0
2018-Jul-18 11:30N 45°39' W 122°45'0 0.0
2018-Jul-18 10:30N 45°39' W 122°45'0 0.0
2018-Jul-18 09:59N 45°39' W 122°45'0 0.0
2018-Jul-18 09:30N 45°39' W 122°45'0 0.0
2018-Jul-18 09:01N 45°39' W 122°45'0 0.7
2018-Jul-18 08:30N 45°39' W 122°45'0 0.2
2018-Jul-18 08:01N 45°39' W 122°45'0 0.0
2018-Jul-18 07:31N 45°39' W 122°45'0 0.0
2018-Jul-18 06:59N 45°39' W 122°45'0 0.0
2018-Jul-18 06:28N 45°39' W 122°45'0 0.0
2018-Jul-18 06:01N 45°39' W 122°45'0 0.0
2018-Jul-18 05:31N 45°39' W 122°45'0 0.0
2018-Jul-18 04:48N 45°39' W 122°45'0 0.0
2018-Jul-18 04:30N 45°39' W 122°45'0 0.0
2018-Jul-18 03:52N 45°39' W 122°45'0 0.0
2018-Jul-18 03:31N 45°39' W 122°45'0 0.5
2018-Jul-18 03:00N 45°39' W 122°44'2 3.6
2018-Jul-18 02:31N 45°38' W 122°42'1 2.3
2018-Jul-18 02:00N 45°38' W 122°43'0 0.7
2018-Jul-18 01:30N 45°38' W 122°43'0 0.0
2018-Jul-18 00:40N 45°38' W 122°43'0 0.0
2018-Jul-18 00:31N 45°38' W 122°43'1 2.5
2018-Jul-18 00:00N 45°38' W 122°42'2 3.8
2018-Jul-17 23:30N 45°39' W 122°44'2 4.6
2018-Jul-17 23:01N 45°38' W 122°47'5 9.7
2018-Jul-17 22:30N 45°34' W 122°44'0 0.3
2018-Jul-17 22:00N 45°34' W 122°44'0 0.0
2018-Jul-17 21:30N 45°34' W 122°44'0 0.0
2018-Jul-17 21:00N 45°34' W 122°44'0 0.0
2018-Jul-17 20:30N 45°34' W 122°44'0 0.0
2018-Jul-17 20:00N 45°34' W 122°44'0 0.0
2018-Jul-17 19:31N 45°34' W 122°44'0 0.0
2018-Jul-17 19:01N 45°34' W 122°44'0 0.0
2018-Jul-17 18:30N 45°34' W 122°44'0 0.0
2018-Jul-17 18:00N 45°34' W 122°44'0 0.0
2018-Jul-17 17:30N 45°34' W 122°44'0 0.0
2018-Jul-17 17:00N 45°34' W 122°44'0 0.0
2018-Jul-17 16:16N 45°34' W 122°44'0 0.2
2018-Jul-17 16:00N 45°34' W 122°44'0 0.0
2018-Jul-17 15:30N 45°34' W 122°44'0 0.0
2018-Jul-17 15:00N 45°34' W 122°44'0 0.0
2018-Jul-17 14:30N 45°34' W 122°44'0 0.0
2018-Jul-17 14:01N 45°34' W 122°44'0 0.0
2018-Jul-17 13:31N 45°34' W 122°44'0 0.0
2018-Jul-17 13:00N 45°34' W 122°44'0 0.0
2018-Jul-17 12:30N 45°34' W 122°44'1 1.8
2018-Jul-17 11:59N 45°33' W 122°42'2 4.4
2018-Jul-17 11:30N 45°32' W 122°40'0 0.7
2018-Jul-17 11:01N 45°32' W 122°41'1 1.2
2018-Jul-17 10:30N 45°32' W 122°41'3 5.0
2018-Jul-17 10:00N 45°34' W 122°44'0 0.8
2018-Jul-17 09:30N 45°34' W 122°44'0 0.0
2018-Jul-17 09:00N 45°34' W 122°44'0 0.0
2018-Jul-17 08:30N 45°34' W 122°44'0 0.0
2018-Jul-17 08:00N 45°34' W 122°44'0 0.0
2018-Jul-17 07:30N 45°34' W 122°44'0 0.0
2018-Jul-17 07:00N 45°34' W 122°44'0 0.0
2018-Jul-17 06:31N 45°34' W 122°44'0 0.0
2018-Jul-17 06:01N 45°34' W 122°44'0 0.0
2018-Jul-17 05:30N 45°34' W 122°44'4 8.3
2018-Jul-17 05:00N 45°37' W 122°47'3 5.7
2018-Jul-17 04:30N 45°38' W 122°44'2 3.3
2018-Jul-17 04:00N 45°38' W 122°42'1 1.0
2018-Jul-17 03:30N 45°38' W 122°42'1 1.0
2018-Jul-17 02:57N 45°38' W 122°42'1 2.4
2018-Jul-17 02:30N 45°38' W 122°43'1 2.4
2018-Jul-17 01:58N 45°39' W 122°45'0 0.0
2018-Jul-17 01:30N 45°39' W 122°45'0 0.0
2018-Jul-17 01:00N 45°39' W 122°45'0 0.0
2018-Jul-17 00:30N 45°39' W 122°45'0 0.0
2018-Jul-16 23:29N 45°39' W 122°45'2 4.3
2018-Jul-16 23:00N 45°38' W 122°47'4 8.8
2018-Jul-16 22:30N 45°34' W 122°44'0 0.6
2018-Jul-16 22:00N 45°34' W 122°44'0 0.0
2018-Jul-16 21:30N 45°34' W 122°44'0 0.0
2018-Jul-16 21:00N 45°34' W 122°44'0 0.0
2018-Jul-16 20:30N 45°34' W 122°44'0 0.0
2018-Jul-16 19:59N 45°34' W 122°44'0 0.0
2018-Jul-16 19:30N 45°34' W 122°44'0 0.0
2018-Jul-16 19:00N 45°34' W 122°44'0 0.0
2018-Jul-16 18:30N 45°34' W 122°44'0 0.0
2018-Jul-16 17:59N 45°34' W 122°44'0 0.1
2018-Jul-16 17:30N 45°34' W 122°44'0 0.0
2018-Jul-16 17:01N 45°34' W 122°44'0 0.0
2018-Jul-16 16:30N 45°34' W 122°44'0 0.0
2018-Jul-16 16:00N 45°34' W 122°44'0 0.0
2018-Jul-16 15:30N 45°34' W 122°44'0 0.0
2018-Jul-16 15:00N 45°34' W 122°44'0 0.0
2018-Jul-16 14:30N 45°34' W 122°44'0 0.0
2018-Jul-16 14:00N 45°34' W 122°44'2 3.4
2018-Jul-16 13:30N 45°33' W 122°42'1 1.9
2018-Jul-16 13:00N 45°32' W 122°41'0 0.4
2018-Jul-16 12:30N 45°32' W 122°41'3 6.0
2018-Jul-16 12:00N 45°34' W 122°44'0 0.5
2018-Jul-16 11:31N 45°34' W 122°44'0 0.0
2018-Jul-16 11:01N 45°34' W 122°44'2 4.8
2018-Jul-16 10:31N 45°36' W 122°47'0 0.0
2018-Jul-16 10:00N 45°36' W 122°47'3 6.7
2018-Jul-16 09:30N 45°39' W 122°46'1 2.0
2018-Jul-16 09:00N 45°39' W 122°45'0 0.0
2018-Jul-16 08:31N 45°39' W 122°45'0 0.0
2018-Jul-16 08:00N 45°39' W 122°45'0 0.0
2018-Jul-16 07:30N 45°39' W 122°45'0 0.0
2018-Jul-16 07:00N 45°39' W 122°45'0 0.0
2018-Jul-16 06:30N 45°39' W 122°45'0 0.0
2018-Jul-16 06:00N 45°39' W 122°45'0 0.0
2018-Jul-16 05:30N 45°39' W 122°45'0 0.0
2018-Jul-16 05:00N 45°39' W 122°45'0 0.0
2018-Jul-16 04:30N 45°39' W 122°45'0 0.0
2018-Jul-16 04:01N 45°39' W 122°45'0 0.0
2018-Jul-16 03:30N 45°39' W 122°45'0 0.0
2018-Jul-16 03:00N 45°39' W 122°45'0 0.0
2018-Jul-16 02:30N 45°39' W 122°45'0 0.0
2018-Jul-16 02:01N 45°39' W 122°45'1 2.0
2018-Jul-16 01:30N 45°38' W 122°43'1 2.6
2018-Jul-16 01:00N 45°38' W 122°42'0 0.9
2018-Jul-16 00:30N 45°38' W 122°42'0 1.0
2018-Jul-16 00:00N 45°38' W 122°42'1 2.7
2018-Jul-15 23:31N 45°38' W 122°43'1 2.6
2018-Jul-15 23:01N 45°39' W 122°45'0 0.1
2018-Jul-15 22:30N 45°39' W 122°45'0 0.0
2018-Jul-15 22:00N 45°39' W 122°45'0 0.0
2018-Jul-15 21:31N 45°39' W 122°45'0 0.0
2018-Jul-15 21:00N 45°39' W 122°45'0 0.0
2018-Jul-15 20:30N 45°39' W 122°45'0 0.0
2018-Jul-15 20:01N 45°39' W 122°45'0 0.0
2018-Jul-15 19:31N 45°39' W 122°45'0 0.0
2018-Jul-15 19:00N 45°39' W 122°45'0 0.0
2018-Jul-15 18:31N 45°39' W 122°45'0 0.0
2018-Jul-15 18:00N 45°39' W 122°45'0 0.0
2018-Jul-15 17:31N 45°39' W 122°45'1 1.4
2018-Jul-15 17:00N 45°39' W 122°46'3 6.0
2018-Jul-15 16:30N 45°36' W 122°47'3 6.5
2018-Jul-15 16:00N 45°34' W 122°44'3 5.8
2018-Jul-15 15:29N 45°36' W 122°47'0 0.7
2018-Jul-15 15:01N 45°36' W 122°47'0 0.8
2018-Jul-15 14:30N 45°36' W 122°47'1 1.1
2018-Jul-15 14:00N 45°36' W 122°47'0 0.3
2018-Jul-15 13:29N 45°36' W 122°47'0 0.0
2018-Jul-15 13:00N 45°36' W 122°47'0 0.0
2018-Jul-15 12:30N 45°36' W 122°47'1 1.3
2018-Jul-15 12:00N 45°36' W 122°47'0 0.5
2018-Jul-15 11:31N 45°36' W 122°47'3 5.6
2018-Jul-15 11:00N 45°34' W 122°44'0 0.4
2018-Jul-15 10:30N 45°34' W 122°44'0 0.0
2018-Jul-15 10:00N 45°34' W 122°44'0 0.0
2018-Jul-15 09:30N 45°34' W 122°44'0 0.0
2018-Jul-15 09:01N 45°34' W 122°44'0 0.0
2018-Jul-15 08:30N 45°34' W 122°44'0 0.0
2018-Jul-15 08:01N 45°34' W 122°44'0 1.0
2018-Jul-15 07:31N 45°34' W 122°44'0 0.3
2018-Jul-15 06:59N 45°34' W 122°44'0 0.8
2018-Jul-15 06:30N 45°34' W 122°44'1 1.1
2018-Jul-15 06:00N 45°35' W 122°45'3 6.0
2018-Jul-15 05:30N 45°37' W 122°47'1 2.3
2018-Jul-15 05:00N 45°38' W 122°47'2 4.6
2018-Jul-15 04:30N 45°41' W 122°46'510.2
2018-Jul-15 04:00N 45°46' W 122°46'5 9.5
2018-Jul-15 03:31N 45°50' W 122°47'4 8.5
2018-Jul-15 03:01N 45°54' W 122°48'510.6
2018-Jul-15 02:31N 45°60' W 122°51'510.0
2018-Jul-15 02:00N 46°04' W 122°53'3 5.6
2018-Jul-15 01:31N 46°06' W 122°56'0 0.3
2018-Jul-15 01:00N 46°06' W 122°57'1 2.4
2018-Jul-15 00:31N 46°05' W 122°55'1 1.8
2018-Jul-15 00:00N 46°06' W 122°56'0 0.1
2018-Jul-14 23:13N 46°06' W 122°56'0 0.4
2018-Jul-14 23:01N 46°06' W 122°57'0 0.1
2018-Jul-14 22:28N 46°06' W 122°56'1 1.5
2018-Jul-14 22:00N 46°05' W 122°56'0 0.0
2018-Jul-14 21:31N 46°05' W 122°56'0 0.0
2018-Jul-14 21:01N 46°05' W 122°56'0 0.0
2018-Jul-14 20:30N 46°05' W 122°56'0 0.0
2018-Jul-14 20:00N 46°05' W 122°56'0 0.0
2018-Jul-14 19:30N 46°05' W 122°56'0 0.0
2018-Jul-14 19:01N 46°05' W 122°56'0 0.0
2018-Jul-14 18:29N 46°05' W 122°56'0 0.0
2018-Jul-14 18:01N 46°05' W 122°56'0 0.0
2018-Jul-14 17:30N 46°05' W 122°56'0 0.0
2018-Jul-14 17:00N 46°05' W 122°56'0 0.0
2018-Jul-14 16:30N 46°05' W 122°56'0 0.0
2018-Jul-14 16:00N 46°05' W 122°56'0 0.0
2018-Jul-14 15:31N 46°05' W 122°56'0 0.0
2018-Jul-14 15:00N 46°05' W 122°56'0 0.0
2018-Jul-14 14:00N 46°05' W 122°56'0 0.0
2018-Jul-14 13:29N 46°05' W 122°56'0 0.0
2018-Jul-14 13:00N 46°05' W 122°56'0 0.0
2018-Jul-14 12:30N 46°05' W 122°56'0 0.0
2018-Jul-14 12:00N 46°05' W 122°56'0 0.0
2018-Jul-14 11:30N 46°05' W 122°56'0 0.0
2018-Jul-14 11:00N 46°05' W 122°56'0 0.0
2018-Jul-14 10:30N 46°05' W 122°56'0 0.0
2018-Jul-14 10:00N 46°05' W 122°56'0 0.0
2018-Jul-14 09:15N 46°05' W 122°56'0 0.0
2018-Jul-14 09:00N 46°05' W 122°56'0 0.0
2018-Jul-14 08:30N 46°05' W 122°56'0 0.0
2018-Jul-14 08:01N 46°05' W 122°56'0 0.0
2018-Jul-14 07:30N 46°05' W 122°56'0 0.0
2018-Jul-14 06:59N 46°05' W 122°56'0 0.0
2018-Jul-14 06:31N 46°05' W 122°56'0 0.7
2018-Jul-14 06:00N 46°05' W 122°55'1 1.7
2018-Jul-14 05:31N 46°06' W 122°56'0 0.5
2018-Jul-14 05:00N 46°06' W 122°57'0 0.5
2018-Jul-14 04:30N 46°06' W 122°56'0 0.0
2018-Jul-14 03:58N 46°06' W 122°56'0 0.3
2018-Jul-14 03:27N 46°06' W 122°56'0 0.0
2018-Jul-14 03:00N 46°06' W 122°56'1 1.3
2018-Jul-14 02:30N 46°05' W 122°56'0 0.0
2018-Jul-14 02:01N 46°05' W 122°56'0 0.0
2018-Jul-14 01:30N 46°05' W 122°56'0 0.0
2018-Jul-14 01:00N 46°05' W 122°56'0 0.0
2018-Jul-14 00:31N 46°05' W 122°56'0 0.0
2018-Jul-13 23:50N 46°05' W 122°56'0 0.0
2018-Jul-13 23:31N 46°05' W 122°56'0 0.0
2018-Jul-13 23:00N 46°05' W 122°56'0 0.0
2018-Jul-13 22:30N 46°05' W 122°56'0 0.1
2018-Jul-13 22:00N 46°06' W 122°56'2 3.0
2018-Jul-13 21:30N 46°06' W 122°58'0 0.1
2018-Jul-13 21:00N 46°06' W 122°58'0 0.6
2018-Jul-13 20:16N 46°06' W 122°57'0 0.0
2018-Jul-13 20:00N 46°06' W 122°57'0 0.0
2018-Jul-13 19:31N 46°06' W 122°57'0 0.0
2018-Jul-13 19:00N 46°06' W 122°57'0 0.0
2018-Jul-13 18:31N 46°06' W 122°57'4 7.5
2018-Jul-13 18:01N 46°04' W 122°53'2 4.0
2018-Jul-13 17:30N 46°02' W 122°53'0 0.1
2018-Jul-13 17:01N 46°02' W 122°53'0 0.0
2018-Jul-13 16:31N 46°02' W 122°53'0 0.0
2018-Jul-13 16:00N 46°02' W 122°53'0 0.4
2018-Jul-13 15:31N 46°02' W 122°52'0 0.2
2018-Jul-13 15:00N 46°02' W 122°52'0 0.0
2018-Jul-13 14:31N 46°02' W 122°52'0 0.0
2018-Jul-13 13:30N 46°02' W 122°52'0 0.0
2018-Jul-13 13:00N 46°02' W 122°52'0 0.0
2018-Jul-13 12:31N 46°02' W 122°52'0 0.0
2018-Jul-13 12:01N 46°02' W 122°52'0 0.0
2018-Jul-13 11:31N 46°02' W 122°52'0 0.0
2018-Jul-13 11:01N 46°02' W 122°52'0 0.0
2018-Jul-13 10:31N 46°02' W 122°52'0 0.0
2018-Jul-13 09:59N 46°02' W 122°52'0 0.0
2018-Jul-13 09:30N 46°02' W 122°52'0 0.0
2018-Jul-13 09:01N 46°02' W 122°52'0 0.0
2018-Jul-13 08:31N 46°02' W 122°52'0 0.0
2018-Jul-13 08:01N 46°02' W 122°52'510.2
2018-Jul-13 07:30N 45°57' W 122°49'713.0
2018-Jul-13 06:59N 45°51' W 122°47'612.7
2018-Jul-13 06:30N 45°44' W 122°46'611.7
2018-Jul-13 06:01N 45°39' W 122°46'4 7.1
2018-Jul-13 05:30N 45°35' W 122°46'2 4.1
2018-Jul-13 05:01N 45°34' W 122°44'3 5.8
2018-Jul-13 04:31N 45°36' W 122°47'3 6.4
2018-Jul-13 04:01N 45°39' W 122°46'1 2.5
2018-Jul-13 03:31N 45°39' W 122°44'1 2.5
2018-Jul-13 03:01N 45°38' W 122°43'1 1.9
2018-Jul-13 02:31N 45°38' W 122°42'2 3.6
2018-Jul-13 01:59N 45°38' W 122°44'1 1.1
2018-Jul-13 01:30N 45°39' W 122°45'0 0.0
2018-Jul-13 01:01N 45°39' W 122°45'0 0.0
2018-Jul-13 00:30N 45°39' W 122°45'0 0.0
2018-Jul-13 00:00N 45°39' W 122°45'0 0.3
2018-Jul-12 23:30N 45°39' W 122°44'0 0.1
2018-Jul-12 23:01N 45°39' W 122°44'0 0.4
2018-Jul-12 22:30N 45°39' W 122°45'0 0.1
2018-Jul-12 22:00N 45°39' W 122°45'0 0.3
2018-Jul-12 21:30N 45°39' W 122°44'2 3.1
2018-Jul-12 21:00N 45°38' W 122°42'1 1.4
2018-Jul-12 20:31N 45°38' W 122°42'2 2.1
2018-Jul-12 19:38N 45°38' W 122°44'1 4.5
2018-Jul-12 19:30N 45°39' W 122°45'0 0.0
2018-Jul-12 18:59N 45°39' W 122°45'0 0.0
2018-Jul-12 18:30N 45°39' W 122°45'0 0.0
2018-Jul-12 18:00N 45°39' W 122°45'0 0.0
2018-Jul-12 17:22N 45°39' W 122°45'0 0.0
2018-Jul-12 17:00N 45°39' W 122°45'2 4.2
2018-Jul-12 16:30N 45°38' W 122°42'0 0.4
2018-Jul-12 15:58N 45°38' W 122°42'0 1.0
2018-Jul-12 15:30N 45°38' W 122°42'1 2.0
2018-Jul-12 15:00N 45°38' W 122°44'0 0.0
2018-Jul-12 14:30N 45°38' W 122°44'0 0.4
2018-Jul-12 14:00N 45°38' W 122°44'3 5.4
2018-Jul-12 13:30N 45°37' W 122°47'1 2.9
2018-Jul-12 13:00N 45°36' W 122°47'2 2.8
2018-Jul-12 12:18N 45°38' W 122°47'2 8.0
2018-Jul-12 12:00N 45°40' W 122°46'2 4.0
2018-Jul-12 11:30N 45°39' W 122°45'0 0.0
2018-Jul-12 10:35N 45°39' W 122°45'0 0.0
2018-Jul-12 10:30N 45°39' W 122°45'0 0.0
2018-Jul-12 09:48N 45°39' W 122°45'0 0.0
2018-Jul-12 09:30N 45°39' W 122°45'0 0.0
2018-Jul-12 08:54N 45°39' W 122°45'0 0.0
2018-Jul-12 08:30N 45°39' W 122°45'0 0.0
2018-Jul-12 07:57N 45°39' W 122°45'0 0.0
2018-Jul-12 07:31N 45°39' W 122°45'0 0.0
2018-Jul-12 06:59N 45°39' W 122°45'0 0.0
2018-Jul-12 06:30N 45°39' W 122°45'0 0.7
2018-Jul-12 06:00N 45°39' W 122°45'1 2.2
2018-Jul-12 05:30N 45°40' W 122°46'4 8.5
2018-Jul-12 05:00N 45°44' W 122°46'5 8.2
2018-Jul-12 04:24N 45°49' W 122°48'3 8.4
2018-Jul-12 04:00N 45°52' W 122°47'3 6.6
2018-Jul-12 03:30N 45°55' W 122°48'5 7.8
2018-Jul-12 02:49N 46°00' W 122°51'3 8.3
2018-Jul-12 02:30N 46°02' W 122°53'4 7.3
2018-Jul-12 02:00N 46°05' W 122°56'0 0.5
2018-Jul-12 01:31N 46°05' W 122°55'0 0.0
2018-Jul-12 01:00N 46°05' W 122°55'0 0.0
2018-Jul-12 00:30N 46°05' W 122°55'0 0.0
2018-Jul-12 00:00N 46°05' W 122°55'0 0.0
2018-Jul-11 23:31N 46°05' W 122°55'0 0.0
2018-Jul-11 23:01N 46°05' W 122°55'0 0.6
2018-Jul-11 22:31N 46°05' W 122°56'0 0.1
2018-Jul-11 22:01N 46°06' W 122°56'0 0.4
2018-Jul-11 21:31N 46°05' W 122°56'2 3.1
2018-Jul-11 21:00N 46°06' W 122°57'0 0.2
2018-Jul-11 20:30N 46°06' W 122°57'1 2.5
2018-Jul-11 20:00N 46°05' W 122°56'0 0.0
2018-Jul-11 19:30N 46°05' W 122°56'0 0.0
2018-Jul-11 19:00N 46°05' W 122°56'0 0.1
2018-Jul-11 18:30N 46°05' W 122°56'4 8.9
2018-Jul-11 18:00N 46°02' W 122°53'0 0.1
2018-Jul-11 17:30N 46°02' W 122°53'0 0.0
2018-Jul-11 17:00N 46°02' W 122°53'0 0.0
2018-Jul-11 16:29N 46°02' W 122°53'0 0.0
2018-Jul-11 16:00N 46°02' W 122°53'0 0.0
2018-Jul-11 15:30N 46°02' W 122°53'0 0.0
2018-Jul-11 15:00N 46°02' W 122°53'0 0.0
2018-Jul-11 14:30N 46°02' W 122°53'0 0.0
2018-Jul-11 14:01N 46°02' W 122°53'0 0.0
2018-Jul-11 13:31N 46°02' W 122°53'0 0.1
2018-Jul-11 13:00N 46°02' W 122°53'0 0.0
2018-Jul-11 12:30N 46°02' W 122°53'0 0.0
2018-Jul-11 12:00N 46°02' W 122°53'0 0.1
2018-Jul-11 11:30N 46°02' W 122°53'0 0.1
2018-Jul-11 11:01N 46°02' W 122°53'1 1.5
2018-Jul-11 10:19N 46°03' W 122°53'3 8.3
2018-Jul-11 10:01N 46°05' W 122°54'2 3.3
2018-Jul-11 09:30N 46°06' W 122°56'0 0.1
2018-Jul-11 09:01N 46°06' W 122°56'0 0.0
2018-Jul-11 08:30N 46°06' W 122°56'2 4.4
2018-Jul-11 08:00N 46°05' W 122°54'611.2
2018-Jul-11 07:31N 45°59' W 122°51'610.9
2018-Jul-11 06:59N 45°54' W 122°48'611.6
2018-Jul-11 06:31N 45°48' W 122°48'510.6
2018-Jul-11 06:01N 45°43' W 122°46'5 9.5
2018-Jul-11 05:30N 45°39' W 122°46'4 7.2
2018-Jul-11 05:00N 45°35' W 122°46'4 8.1
2018-Jul-11 04:31N 45°32' W 122°41'1 1.9
2018-Jul-11 03:59N 45°32' W 122°40'0 1.0
2018-Jul-11 03:30N 45°32' W 122°41'0 0.3
2018-Jul-11 03:00N 45°32' W 122°41'0 0.1
2018-Jul-11 02:30N 45°32' W 122°41'1 2.6
2018-Jul-11 02:00N 45°33' W 122°42'3 6.1
2018-Jul-11 01:30N 45°35' W 122°46'3 7.0
2018-Jul-11 01:01N 45°38' W 122°47'4 7.5
2018-Jul-11 00:30N 45°38' W 122°42'1 2.6
2018-Jul-11 00:00N 45°38' W 122°43'1 2.8
2018-Jul-10 23:30N 45°39' W 122°45'0 0.0
2018-Jul-10 23:00N 45°39' W 122°45'0 0.0
2018-Jul-10 22:31N 45°39' W 122°45'0 0.0
2018-Jul-10 21:59N 45°39' W 122°45'0 0.0
2018-Jul-10 21:30N 45°39' W 122°45'0 0.0
2018-Jul-10 21:00N 45°39' W 122°45'0 0.0
2018-Jul-10 20:30N 45°39' W 122°45'0 0.0
2018-Jul-10 20:01N 45°39' W 122°45'0 0.0
2018-Jul-10 19:31N 45°39' W 122°45'0 0.0
2018-Jul-10 19:00N 45°39' W 122°45'0 0.0
2018-Jul-10 18:30N 45°39' W 122°45'1 2.9
2018-Jul-10 18:00N 45°38' W 122°43'0 0.0
2018-Jul-10 17:30N 45°38' W 122°43'0 0.3
2018-Jul-10 17:00N 45°38' W 122°43'1 1.9
2018-Jul-10 16:12N 45°39' W 122°45'0 0.0
2018-Jul-10 16:00N 45°39' W 122°45'0 0.0
2018-Jul-10 15:31N 45°39' W 122°45'0 0.0
2018-Jul-10 15:01N 45°39' W 122°45'0 0.0
2018-Jul-10 14:30N 45°39' W 122°45'0 0.0
2018-Jul-10 14:00N 45°39' W 122°45'0 0.0
2018-Jul-10 13:30N 45°39' W 122°45'0 0.0
2018-Jul-10 13:00N 45°39' W 122°45'0 0.8
2018-Jul-10 12:30N 45°38' W 122°45'1 2.0
2018-Jul-10 12:00N 45°39' W 122°46'1 1.7
2018-Jul-10 11:31N 45°39' W 122°45'0 0.0
2018-Jul-10 11:01N 45°39' W 122°45'0 0.0
2018-Jul-10 10:31N 45°39' W 122°45'0 0.1
2018-Jul-10 09:41N 45°39' W 122°45'1 5.6
2018-Jul-10 09:26N 45°38' W 122°47'3 7.6
2018-Jul-10 09:00N 45°35' W 122°46'3 6.1
2018-Jul-10 08:30N 45°33' W 122°43'2 3.4
2018-Jul-10 08:00N 45°32' W 122°41'0 0.1
2018-Jul-10 07:30N 45°32' W 122°41'0 0.0
2018-Jul-10 07:00N 45°32' W 122°41'0 0.1
2018-Jul-10 06:31N 45°32' W 122°41'0 0.1
2018-Jul-10 06:00N 45°32' W 122°41'1 2.5
2018-Jul-10 05:30N 45°33' W 122°42'1 2.6
2018-Jul-10 05:00N 45°34' W 122°44'0 0.0
2018-Jul-10 04:15N 45°34' W 122°44'0 0.0
2018-Jul-10 04:01N 45°34' W 122°44'0 0.0
2018-Jul-10 03:30N 45°34' W 122°44'0 0.0
2018-Jul-10 03:00N 45°34' W 122°44'0 0.3
2018-Jul-10 02:30N 45°34' W 122°44'1 1.9
2018-Jul-10 02:01N 45°34' W 122°44'4 7.3
2018-Jul-10 01:31N 45°37' W 122°47'2 4.1
2018-Jul-10 01:00N 45°39' W 122°45'2 3.1
2018-Jul-10 00:30N 45°38' W 122°43'1 1.3
2018-Jul-10 00:00N 45°38' W 122°42'0 0.6
2018-Jul-09 23:31N 45°38' W 122°43'2 3.0
2018-Jul-09 23:00N 45°39' W 122°45'0 0.6
2018-Jul-09 22:30N 45°39' W 122°45'3 5.5
2018-Jul-09 22:00N 45°36' W 122°47'4 7.1
2018-Jul-09 21:30N 45°34' W 122°44'0 0.2
2018-Jul-09 21:00N 45°34' W 122°44'0 0.0
2018-Jul-09 20:30N 45°34' W 122°44'0 0.0
2018-Jul-09 20:01N 45°34' W 122°44'0 0.0
2018-Jul-09 19:31N 45°34' W 122°44'0 0.0
2018-Jul-09 19:00N 45°34' W 122°44'0 0.0
2018-Jul-09 18:30N 45°34' W 122°44'1 1.0
2018-Jul-09 18:01N 45°34' W 122°44'4 8.2
2018-Jul-09 17:30N 45°37' W 122°47'2 4.2
2018-Jul-09 17:01N 45°39' W 122°46'0 0.3
2018-Jul-09 16:31N 45°39' W 122°46'2 3.8
2018-Jul-09 16:00N 45°38' W 122°43'0 0.4
2018-Jul-09 15:30N 45°38' W 122°44'0 0.0
2018-Jul-09 15:00N 45°38' W 122°44'  
Track history (hours):
 
Tides and Currents Weather Stations Pressure Air Temp Water Temp Dewpoint Dewpoint Depression Visibility Wind Speed Wind Dir Waves Ship Positions

Sommer S

Owner: Shaver Transportation Company, Portland, OR. More information available from US FCC via Universal Licensing System and Coast Guard Vessel Documentation Center.

Last reported at 2018-Jul-19 14:55 UTC. Time now 2018-Jul-19 15:03 UTC.
Position N 45°38' W 122°44'.

Length 25 m; draft 16.5 m.

Type: Tug. MMSI: 367530080.

Date/timePositionNaut miles runAvg speedWind from/ knotsBaromVisibWave heightAir tempDewpointWater temp
2018-Jul-19 14:55N 45°38' W 122°44'0 0.0
2018-Jul-19 14:00N 45°38' W 122°44'0 0.0
2018-Jul-19 13:26N 45°38' W 122°44'0 0.0
2018-Jul-19 13:00N 45°38' W 122°44'0 0.0
2018-Jul-19 12:30N 45°38' W 122°44'0 0.0
2018-Jul-19 12:00N 45°38' W 122°44'0 0.0
2018-Jul-19 11:31N 45°38' W 122°44'0 0.0
2018-Jul-19 11:00N 45°38' W 122°44'0 0.0
2018-Jul-19 10:30N 45°38' W 122°44'0 0.0
2018-Jul-19 09:55N 45°38' W 122°44'0 0.0
2018-Jul-19 09:31N 45°38' W 122°44'0 0.0
2018-Jul-19 09:01N 45°38' W 122°44'0 0.0
2018-Jul-19 08:30N 45°38' W 122°44'0 0.1
2018-Jul-19 08:00N 45°38' W 122°44'1 2.6
2018-Jul-19 07:30N 45°38' W 122°42'0 0.1
2018-Jul-19 06:59N 45°38' W 122°42'1 1.4
2018-Jul-19 06:30N 45°38' W 122°43'1 1.5
2018-Jul-19 06:01N 45°38' W 122°42'3 5.1
2018-Jul-19 05:30N 45°39' W 122°45'0 0.8
2018-Jul-19 05:00N 45°39' W 122°44'1 1.7
2018-Jul-19 04:30N 45°39' W 122°46'0 0.1
2018-Jul-19 04:00N 45°39' W 122°46'0 0.0
2018-Jul-19 03:30N 45°39' W 122°46'0 0.1
2018-Jul-19 03:00N 45°39' W 122°46'2 3.1
2018-Jul-19 02:30N 45°38' W 122°44'2 3.1
2018-Jul-19 02:00N 45°39' W 122°45'0 0.0
2018-Jul-19 01:31N 45°39' W 122°45'0 0.0
2018-Jul-19 01:00N 45°39' W 122°45'0 0.0
2018-Jul-19 00:30N 45°39' W 122°45'0 0.0
2018-Jul-19 00:00N 45°39' W 122°45'0 0.0
2018-Jul-18 23:30N 45°39' W 122°45'0 0.0
2018-Jul-18 23:00N 45°39' W 122°45'0 0.0
2018-Jul-18 22:17N 45°39' W 122°45'0 0.4
2018-Jul-18 22:00N 45°39' W 122°45'1 2.9
2018-Jul-18 21:31N 45°38' W 122°47'3 5.1
2018-Jul-18 21:00N 45°38' W 122°43'1 1.3
2018-Jul-18 20:30N 45°38' W 122°42'0 0.0
2018-Jul-18 20:00N 45°38' W 122°42'2 4.2
2018-Jul-18 19:30N 45°39' W 122°45'0 0.0
2018-Jul-18 19:00N 45°39' W 122°45'0 0.0
2018-Jul-18 18:21N 45°39' W 122°45'0 0.0
2018-Jul-18 18:00N 45°39' W 122°45'0 0.0
2018-Jul-18 17:30N 45°39' W 122°45'0 0.0
2018-Jul-18 17:00N 45°39' W 122°45'0 0.0
2018-Jul-18 16:31N 45°39' W 122°45'0 0.0
2018-Jul-18 16:00N 45°39' W 122°45'0 0.0
2018-Jul-18 15:27N 45°39' W 122°45'0 0.0
2018-Jul-18 15:00N 45°39' W 122°45'0 0.0
2018-Jul-18 14:30N 45°39' W 122°45'0 0.0
2018-Jul-18 13:30N 45°39' W 122°45'0 0.0
2018-Jul-18 13:00N 45°39' W 122°45'0 0.0
2018-Jul-18 12:16N 45°39' W 122°45'0 0.0
2018-Jul-18 12:00N 45°39' W 122°45'0 0.0
2018-Jul-18 11:30N 45°39' W 122°45'0 0.0
2018-Jul-18 10:30N 45°39' W 122°45'0 0.0
2018-Jul-18 09:59N 45°39' W 122°45'0 0.0
2018-Jul-18 09:30N 45°39' W 122°45'0 0.0
2018-Jul-18 09:01N 45°39' W 122°45'0 0.7
2018-Jul-18 08:30N 45°39' W 122°45'0 0.2
2018-Jul-18 08:01N 45°39' W 122°45'0 0.0
2018-Jul-18 07:31N 45°39' W 122°45'0 0.0
2018-Jul-18 06:59N 45°39' W 122°45'0 0.0
2018-Jul-18 06:28N 45°39' W 122°45'0 0.0
2018-Jul-18 06:01N 45°39' W 122°45'0 0.0
2018-Jul-18 05:31N 45°39' W 122°45'0 0.0
2018-Jul-18 04:48N 45°39' W 122°45'0 0.0
2018-Jul-18 04:30N 45°39' W 122°45'0 0.0
2018-Jul-18 03:52N 45°39' W 122°45'0 0.0
2018-Jul-18 03:31N 45°39' W 122°45'0 0.5
2018-Jul-18 03:00N 45°39' W 122°44'2 3.6
2018-Jul-18 02:31N 45°38' W 122°42'1 2.3
2018-Jul-18 02:00N 45°38' W 122°43'0 0.7
2018-Jul-18 01:30N 45°38' W 122°43'0 0.0
2018-Jul-18 00:40N 45°38' W 122°43'0 0.0
2018-Jul-18 00:31N 45°38' W 122°43'1 2.5
2018-Jul-18 00:00N 45°38' W 122°42'2 3.8
2018-Jul-17 23:30N 45°39' W 122°44'2 4.6
2018-Jul-17 23:01N 45°38' W 122°47'5 9.7
2018-Jul-17 22:30N 45°34' W 122°44'0 0.3
2018-Jul-17 22:00N 45°34' W 122°44'0 0.0
2018-Jul-17 21:30N 45°34' W 122°44'0 0.0
2018-Jul-17 21:00N 45°34' W 122°44'0 0.0
2018-Jul-17 20:30N 45°34' W 122°44'0 0.0
2018-Jul-17 20:00N 45°34' W 122°44'0 0.0
2018-Jul-17 19:31N 45°34' W 122°44'0 0.0
2018-Jul-17 19:01N 45°34' W 122°44'0 0.0
2018-Jul-17 18:30N 45°34' W 122°44'0 0.0
2018-Jul-17 18:00N 45°34' W 122°44'0 0.0
2018-Jul-17 17:30N 45°34' W 122°44'0 0.0
2018-Jul-17 17:00N 45°34' W 122°44'0 0.0
2018-Jul-17 16:16N 45°34' W 122°44'0 0.2
2018-Jul-17 16:00N 45°34' W 122°44'0 0.0
2018-Jul-17 15:30N 45°34' W 122°44'0 0.0
2018-Jul-17 15:00N 45°34' W 122°44'0 0.0
2018-Jul-17 14:30N 45°34' W 122°44'0 0.0
2018-Jul-17 14:01N 45°34' W 122°44'0 0.0
2018-Jul-17 13:31N 45°34' W 122°44'0 0.0
2018-Jul-17 13:00N 45°34' W 122°44'0 0.0
2018-Jul-17 12:30N 45°34' W 122°44'1 1.8
2018-Jul-17 11:59N 45°33' W 122°42'2 4.4
2018-Jul-17 11:30N 45°32' W 122°40'0 0.7
2018-Jul-17 11:01N 45°32' W 122°41'1 1.2
2018-Jul-17 10:30N 45°32' W 122°41'3 5.0
2018-Jul-17 10:00N 45°34' W 122°44'0 0.8
2018-Jul-17 09:30N 45°34' W 122°44'0 0.0
2018-Jul-17 09:00N 45°34' W 122°44'0 0.0
2018-Jul-17 08:30N 45°34' W 122°44'0 0.0
2018-Jul-17 08:00N 45°34' W 122°44'0 0.0
2018-Jul-17 07:30N 45°34' W 122°44'0 0.0
2018-Jul-17 07:00N 45°34' W 122°44'0 0.0
2018-Jul-17 06:31N 45°34' W 122°44'0 0.0
2018-Jul-17 06:01N 45°34' W 122°44'0 0.0
2018-Jul-17 05:30N 45°34' W 122°44'4 8.3
2018-Jul-17 05:00N 45°37' W 122°47'3 5.7
2018-Jul-17 04:30N 45°38' W 122°44'2 3.3
2018-Jul-17 04:00N 45°38' W 122°42'1 1.0
2018-Jul-17 03:30N 45°38' W 122°42'1 1.0
2018-Jul-17 02:57N 45°38' W 122°42'1 2.4
2018-Jul-17 02:30N 45°38' W 122°43'1 2.4
2018-Jul-17 01:58N 45°39' W 122°45'0 0.0
2018-Jul-17 01:30N 45°39' W 122°45'0 0.0
2018-Jul-17 01:00N 45°39' W 122°45'0 0.0
2018-Jul-17 00:30N 45°39' W 122°45'0 0.0
2018-Jul-16 23:29N 45°39' W 122°45'2 4.3
2018-Jul-16 23:00N 45°38' W 122°47'4 8.8
2018-Jul-16 22:30N 45°34' W 122°44'0 0.6
2018-Jul-16 22:00N 45°34' W 122°44'0 0.0
2018-Jul-16 21:30N 45°34' W 122°44'0 0.0
2018-Jul-16 21:00N 45°34' W 122°44'0 0.0
2018-Jul-16 20:30N 45°34' W 122°44'0 0.0
2018-Jul-16 19:59N 45°34' W 122°44'0 0.0
2018-Jul-16 19:30N 45°34' W 122°44'0 0.0
2018-Jul-16 19:00N 45°34' W 122°44'0 0.0
2018-Jul-16 18:30N 45°34' W 122°44'0 0.0
2018-Jul-16 17:59N 45°34' W 122°44'0 0.1
2018-Jul-16 17:30N 45°34' W 122°44'0 0.0
2018-Jul-16 17:01N 45°34' W 122°44'0 0.0
2018-Jul-16 16:30N 45°34' W 122°44'0 0.0
2018-Jul-16 16:00N 45°34' W 122°44'0 0.0
2018-Jul-16 15:30N 45°34' W 122°44'0 0.0
2018-Jul-16 15:00N 45°34' W 122°44'0 0.0
2018-Jul-16 14:30N 45°34' W 122°44'0 0.0
2018-Jul-16 14:00N 45°34' W 122°44'2 3.4
2018-Jul-16 13:30N 45°33' W 122°42'1 1.9
2018-Jul-16 13:00N 45°32' W 122°41'0 0.4
2018-Jul-16 12:30N 45°32' W 122°41'3 6.0
2018-Jul-16 12:00N 45°34' W 122°44'0 0.5
2018-Jul-16 11:31N 45°34' W 122°44'0 0.0
2018-Jul-16 11:01N 45°34' W 122°44'2 4.8
2018-Jul-16 10:31N 45°36' W 122°47'0 0.0
2018-Jul-16 10:00N 45°36' W 122°47'3 6.7
2018-Jul-16 09:30N 45°39' W 122°46'1 2.0
2018-Jul-16 09:00N 45°39' W 122°45'0 0.0
2018-Jul-16 08:31N 45°39' W 122°45'0 0.0
2018-Jul-16 08:00N 45°39' W 122°45'0 0.0
2018-Jul-16 07:30N 45°39' W 122°45'0 0.0
2018-Jul-16 07:00N 45°39' W 122°45'0 0.0
2018-Jul-16 06:30N 45°39' W 122°45'0 0.0
2018-Jul-16 06:00N 45°39' W 122°45'0 0.0
2018-Jul-16 05:30N 45°39' W 122°45'0 0.0
2018-Jul-16 05:00N 45°39' W 122°45'0 0.0
2018-Jul-16 04:30N 45°39' W 122°45'0 0.0
2018-Jul-16 04:01N 45°39' W 122°45'0 0.0
2018-Jul-16 03:30N 45°39' W 122°45'0 0.0
2018-Jul-16 03:00N 45°39' W 122°45'0 0.0
2018-Jul-16 02:30N 45°39' W 122°45'0 0.0
2018-Jul-16 02:01N 45°39' W 122°45'1 2.0
2018-Jul-16 01:30N 45°38' W 122°43'1 2.6
2018-Jul-16 01:00N 45°38' W 122°42'0 0.9
2018-Jul-16 00:30N 45°38' W 122°42'0 1.0
2018-Jul-16 00:00N 45°38' W 122°42'1 2.7
2018-Jul-15 23:31N 45°38' W 122°43'1 2.6
2018-Jul-15 23:01N 45°39' W 122°45'0 0.1
2018-Jul-15 22:30N 45°39' W 122°45'0 0.0
2018-Jul-15 22:00N 45°39' W 122°45'0 0.0
2018-Jul-15 21:31N 45°39' W 122°45'0 0.0
2018-Jul-15 21:00N 45°39' W 122°45'0 0.0
2018-Jul-15 20:30N 45°39' W 122°45'0 0.0
2018-Jul-15 20:01N 45°39' W 122°45'0 0.0
2018-Jul-15 19:31N 45°39' W 122°45'0 0.0
2018-Jul-15 19:00N 45°39' W 122°45'0 0.0
2018-Jul-15 18:31N 45°39' W 122°45'0 0.0
2018-Jul-15 18:00N 45°39' W 122°45'0 0.0
2018-Jul-15 17:31N 45°39' W 122°45'1 1.4
2018-Jul-15 17:00N 45°39' W 122°46'3 6.0
2018-Jul-15 16:30N 45°36' W 122°47'3 6.5
2018-Jul-15 16:00N 45°34' W 122°44'3 5.8
2018-Jul-15 15:29N 45°36' W 122°47'0 0.7
2018-Jul-15 15:01N 45°36' W 122°47'0 0.8
2018-Jul-15 14:30N 45°36' W 122°47'1 1.1
2018-Jul-15 14:00N 45°36' W 122°47'0 0.3
2018-Jul-15 13:29N 45°36' W 122°47'0 0.0
2018-Jul-15 13:00N 45°36' W 122°47'0 0.0
2018-Jul-15 12:30N 45°36' W 122°47'1 1.3
2018-Jul-15 12:00N 45°36' W 122°47'0 0.5
2018-Jul-15 11:31N 45°36' W 122°47'3 5.6
2018-Jul-15 11:00N 45°34' W 122°44'0 0.4
2018-Jul-15 10:30N 45°34' W 122°44'0 0.0
2018-Jul-15 10:00N 45°34' W 122°44'0 0.0
2018-Jul-15 09:30N 45°34' W 122°44'0 0.0
2018-Jul-15 09:01N 45°34' W 122°44'0 0.0
2018-Jul-15 08:30N 45°34' W 122°44'0 0.0
2018-Jul-15 08:01N 45°34' W 122°44'0 1.0
2018-Jul-15 07:31N 45°34' W 122°44'0 0.3
2018-Jul-15 06:59N 45°34' W 122°44'0 0.8
2018-Jul-15 06:30N 45°34' W 122°44'1 1.1
2018-Jul-15 06:00N 45°35' W 122°45'3 6.0
2018-Jul-15 05:30N 45°37' W 122°47'1 2.3
2018-Jul-15 05:00N 45°38' W 122°47'2 4.6
2018-Jul-15 04:30N 45°41' W 122°46'510.2
2018-Jul-15 04:00N 45°46' W 122°46'5 9.5
2018-Jul-15 03:31N 45°50' W 122°47'4 8.5
2018-Jul-15 03:01N 45°54' W 122°48'510.6
2018-Jul-15 02:31N 45°60' W 122°51'510.0
2018-Jul-15 02:00N 46°04' W 122°53'3 5.6
2018-Jul-15 01:31N 46°06' W 122°56'0 0.3
2018-Jul-15 01:00N 46°06' W 122°57'1 2.4
2018-Jul-15 00:31N 46°05' W 122°55'1 1.8
2018-Jul-15 00:00N 46°06' W 122°56'0 0.1
2018-Jul-14 23:13N 46°06' W 122°56'0 0.4
2018-Jul-14 23:01N 46°06' W 122°57'0 0.1
2018-Jul-14 22:28N 46°06' W 122°56'1 1.5
2018-Jul-14 22:00N 46°05' W 122°56'0 0.0
2018-Jul-14 21:31N 46°05' W 122°56'0 0.0
2018-Jul-14 21:01N 46°05' W 122°56'0 0.0
2018-Jul-14 20:30N 46°05' W 122°56'0 0.0
2018-Jul-14 20:00N 46°05' W 122°56'0 0.0
2018-Jul-14 19:30N 46°05' W 122°56'0 0.0
2018-Jul-14 19:01N 46°05' W 122°56'0 0.0
2018-Jul-14 18:29N 46°05' W 122°56'0 0.0
2018-Jul-14 18:01N 46°05' W 122°56'0 0.0
2018-Jul-14 17:30N 46°05' W 122°56'0 0.0
2018-Jul-14 17:00N 46°05' W 122°56'0 0.0
2018-Jul-14 16:30N 46°05' W 122°56'0 0.0
2018-Jul-14 16:00N 46°05' W 122°56'0 0.0
2018-Jul-14 15:31N 46°05' W 122°56'0 0.0
2018-Jul-14 15:00N 46°05' W 122°56'0 0.0
2018-Jul-14 14:00N 46°05' W 122°56'0 0.0
2018-Jul-14 13:29N 46°05' W 122°56'0 0.0
2018-Jul-14 13:00N 46°05' W 122°56'0 0.0
2018-Jul-14 12:30N 46°05' W 122°56'0 0.0
2018-Jul-14 12:00N 46°05' W 122°56'0 0.0
2018-Jul-14 11:30N 46°05' W 122°56'0 0.0
2018-Jul-14 11:00N 46°05' W 122°56'0 0.0
2018-Jul-14 10:30N 46°05' W 122°56'0 0.0
2018-Jul-14 10:00N 46°05' W 122°56'0 0.0
2018-Jul-14 09:15N 46°05' W 122°56'0 0.0
2018-Jul-14 09:00N 46°05' W 122°56'0 0.0
2018-Jul-14 08:30N 46°05' W 122°56'0 0.0
2018-Jul-14 08:01N 46°05' W 122°56'0 0.0
2018-Jul-14 07:30N 46°05' W 122°56'0 0.0
2018-Jul-14 06:59N 46°05' W 122°56'0 0.0
2018-Jul-14 06:31N 46°05' W 122°56'0 0.7
2018-Jul-14 06:00N 46°05' W 122°55'1 1.7
2018-Jul-14 05:31N 46°06' W 122°56'0 0.5
2018-Jul-14 05:00N 46°06' W 122°57'0 0.5
2018-Jul-14 04:30N 46°06' W 122°56'0 0.0
2018-Jul-14 03:58N 46°06' W 122°56'0 0.3
2018-Jul-14 03:27N 46°06' W 122°56'0 0.0
2018-Jul-14 03:00N 46°06' W 122°56'1 1.3
2018-Jul-14 02:30N 46°05' W 122°56'0 0.0
2018-Jul-14 02:01N 46°05' W 122°56'0 0.0
2018-Jul-14 01:30N 46°05' W 122°56'0 0.0
2018-Jul-14 01:00N 46°05' W 122°56'0 0.0
2018-Jul-14 00:31N 46°05' W 122°56'0 0.0
2018-Jul-13 23:50N 46°05' W 122°56'0 0.0
2018-Jul-13 23:31N 46°05' W 122°56'0 0.0
2018-Jul-13 23:00N 46°05' W 122°56'0 0.0
2018-Jul-13 22:30N 46°05' W 122°56'0 0.1
2018-Jul-13 22:00N 46°06' W 122°56'2 3.0
2018-Jul-13 21:30N 46°06' W 122°58'0 0.1
2018-Jul-13 21:00N 46°06' W 122°58'0 0.6
2018-Jul-13 20:16N 46°06' W 122°57'0 0.0
2018-Jul-13 20:00N 46°06' W 122°57'0 0.0
2018-Jul-13 19:31N 46°06' W 122°57'0 0.0
2018-Jul-13 19:00N 46°06' W 122°57'0 0.0
2018-Jul-13 18:31N 46°06' W 122°57'4 7.5
2018-Jul-13 18:01N 46°04' W 122°53'2 4.0
2018-Jul-13 17:30N 46°02' W 122°53'0 0.1
2018-Jul-13 17:01N 46°02' W 122°53'0 0.0
2018-Jul-13 16:31N 46°02' W 122°53'0 0.0
2018-Jul-13 16:00N 46°02' W 122°53'0 0.4
2018-Jul-13 15:31N 46°02' W 122°52'0 0.2
2018-Jul-13 15:00N 46°02' W 122°52'0 0.0
2018-Jul-13 14:31N 46°02' W 122°52'0 0.0
2018-Jul-13 13:30N 46°02' W 122°52'0 0.0
2018-Jul-13 13:00N 46°02' W 122°52'0 0.0
2018-Jul-13 12:31N 46°02' W 122°52'0 0.0
2018-Jul-13 12:01N 46°02' W 122°52'0 0.0
2018-Jul-13 11:31N 46°02' W 122°52'0 0.0
2018-Jul-13 11:01N 46°02' W 122°52'0 0.0
2018-Jul-13 10:31N 46°02' W 122°52'0 0.0
2018-Jul-13 09:59N 46°02' W 122°52'0 0.0
2018-Jul-13 09:30N 46°02' W 122°52'0 0.0
2018-Jul-13 09:01N 46°02' W 122°52'0 0.0
2018-Jul-13 08:31N 46°02' W 122°52'0 0.0
2018-Jul-13 08:01N 46°02' W 122°52'510.2
2018-Jul-13 07:30N 45°57' W 122°49'713.0
2018-Jul-13 06:59N 45°51' W 122°47'612.7
2018-Jul-13 06:30N 45°44' W 122°46'611.7
2018-Jul-13 06:01N 45°39' W 122°46'4 7.1
2018-Jul-13 05:30N 45°35' W 122°46'2 4.1
2018-Jul-13 05:01N 45°34' W 122°44'3 5.8
2018-Jul-13 04:31N 45°36' W 122°47'3 6.4
2018-Jul-13 04:01N 45°39' W 122°46'1 2.5
2018-Jul-13 03:31N 45°39' W 122°44'1 2.5
2018-Jul-13 03:01N 45°38' W 122°43'1 1.9
2018-Jul-13 02:31N 45°38' W 122°42'2 3.6
2018-Jul-13 01:59N 45°38' W 122°44'1 1.1
2018-Jul-13 01:30N 45°39' W 122°45'0 0.0
2018-Jul-13 01:01N 45°39' W 122°45'0 0.0
2018-Jul-13 00:30N 45°39' W 122°45'0 0.0
2018-Jul-13 00:00N 45°39' W 122°45'0 0.3
2018-Jul-12 23:30N 45°39' W 122°44'0 0.1
2018-Jul-12 23:01N 45°39' W 122°44'0 0.4
2018-Jul-12 22:30N 45°39' W 122°45'0 0.1
2018-Jul-12 22:00N 45°39' W 122°45'0 0.3
2018-Jul-12 21:30N 45°39' W 122°44'2 3.1
2018-Jul-12 21:00N 45°38' W 122°42'1 1.4
2018-Jul-12 20:31N 45°38' W 122°42'2 2.1
2018-Jul-12 19:38N 45°38' W 122°44'1 4.5
2018-Jul-12 19:30N 45°39' W 122°45'0 0.0
2018-Jul-12 18:59N 45°39' W 122°45'0 0.0
2018-Jul-12 18:30N 45°39' W 122°45'0 0.0
2018-Jul-12 18:00N 45°39' W 122°45'0 0.0
2018-Jul-12 17:22N 45°39' W 122°45'0 0.0
2018-Jul-12 17:00N 45°39' W 122°45'2 4.2
2018-Jul-12 16:30N 45°38' W 122°42'0 0.4
2018-Jul-12 15:58N 45°38' W 122°42'0 1.0
2018-Jul-12 15:30N 45°38' W 122°42'1 2.0
2018-Jul-12 15:00N 45°38' W 122°44'0 0.0
2018-Jul-12 14:30N 45°38' W 122°44'0 0.4
2018-Jul-12 14:00N 45°38' W 122°44'3 5.4
2018-Jul-12 13:30N 45°37' W 122°47'1 2.9
2018-Jul-12 13:00N 45°36' W 122°47'2 2.8
2018-Jul-12 12:18N 45°38' W 122°47'2 8.0
2018-Jul-12 12:00N 45°40' W 122°46'2 4.0
2018-Jul-12 11:30N 45°39' W 122°45'0 0.0
2018-Jul-12 10:35N 45°39' W 122°45'0 0.0
2018-Jul-12 10:30N 45°39' W 122°45'0 0.0
2018-Jul-12 09:48N 45°39' W 122°45'0 0.0
2018-Jul-12 09:30N 45°39' W 122°45'0 0.0
2018-Jul-12 08:54N 45°39' W 122°45'0 0.0
2018-Jul-12 08:30N 45°39' W 122°45'0 0.0
2018-Jul-12 07:57N 45°39' W 122°45'0 0.0
2018-Jul-12 07:31N 45°39' W 122°45'0 0.0
2018-Jul-12 06:59N 45°39' W 122°45'0 0.0
2018-Jul-12 06:30N 45°39' W 122°45'0 0.7
2018-Jul-12 06:00N 45°39' W 122°45'1 2.2
2018-Jul-12 05:30N 45°40' W 122°46'4 8.5
2018-Jul-12 05:00N 45°44' W 122°46'5 8.2
2018-Jul-12 04:24N 45°49' W 122°48'3 8.4
2018-Jul-12 04:00N 45°52' W 122°47'3 6.6
2018-Jul-12 03:30N 45°55' W 122°48'5 7.8
2018-Jul-12 02:49N 46°00' W 122°51'3 8.3
2018-Jul-12 02:30N 46°02' W 122°53'4 7.3
2018-Jul-12 02:00N 46°05' W 122°56'0 0.5
2018-Jul-12 01:31N 46°05' W 122°55'0 0.0
2018-Jul-12 01:00N 46°05' W 122°55'0 0.0
2018-Jul-12 00:30N 46°05' W 122°55'0 0.0
2018-Jul-12 00:00N 46°05' W 122°55'0 0.0
2018-Jul-11 23:31N 46°05' W 122°55'0 0.0
2018-Jul-11 23:01N 46°05' W 122°55'0 0.6
2018-Jul-11 22:31N 46°05' W 122°56'0 0.1
2018-Jul-11 22:01N 46°06' W 122°56'0 0.4
2018-Jul-11 21:31N 46°05' W 122°56'2 3.1
2018-Jul-11 21:00N 46°06' W 122°57'0 0.2
2018-Jul-11 20:30N 46°06' W 122°57'1 2.5
2018-Jul-11 20:00N 46°05' W 122°56'0 0.0
2018-Jul-11 19:30N 46°05' W 122°56'0 0.0
2018-Jul-11 19:00N 46°05' W 122°56'0 0.1
2018-Jul-11 18:30N 46°05' W 122°56'4 8.9
2018-Jul-11 18:00N 46°02' W 122°53'0 0.1
2018-Jul-11 17:30N 46°02' W 122°53'0 0.0
2018-Jul-11 17:00N 46°02' W 122°53'0 0.0
2018-Jul-11 16:29N 46°02' W 122°53'0 0.0
2018-Jul-11 16:00N 46°02' W 122°53'0 0.0
2018-Jul-11 15:30N 46°02' W 122°53'0 0.0
2018-Jul-11 15:00N 46°02' W 122°53'0 0.0
2018-Jul-11 14:30N 46°02' W 122°53'0 0.0
2018-Jul-11 14:01N 46°02' W 122°53'0 0.0
2018-Jul-11 13:31N 46°02' W 122°53'0 0.1
2018-Jul-11 13:00N 46°02' W 122°53'0 0.0
2018-Jul-11 12:30N 46°02' W 122°53'0 0.0
2018-Jul-11 12:00N 46°02' W 122°53'0 0.1
2018-Jul-11 11:30N 46°02' W 122°53'0 0.1
2018-Jul-11 11:01N 46°02' W 122°53'1 1.5
2018-Jul-11 10:19N 46°03' W 122°53'3 8.3
2018-Jul-11 10:01N 46°05' W 122°54'2 3.3
2018-Jul-11 09:30N 46°06' W 122°56'0 0.1
2018-Jul-11 09:01N 46°06' W 122°56'0 0.0
2018-Jul-11 08:30N 46°06' W 122°56'2 4.4
2018-Jul-11 08:00N 46°05' W 122°54'611.2
2018-Jul-11 07:31N 45°59' W 122°51'610.9
2018-Jul-11 06:59N 45°54' W 122°48'611.6
2018-Jul-11 06:31N 45°48' W 122°48'510.6
2018-Jul-11 06:01N 45°43' W 122°46'5 9.5
2018-Jul-11 05:30N 45°39' W 122°46'4 7.2
2018-Jul-11 05:00N 45°35' W 122°46'4 8.1
2018-Jul-11 04:31N 45°32' W 122°41'1 1.9
2018-Jul-11 03:59N 45°32' W 122°40'0 1.0
2018-Jul-11 03:30N 45°32' W 122°41'0 0.3
2018-Jul-11 03:00N 45°32' W 122°41'0 0.1
2018-Jul-11 02:30N 45°32' W 122°41'1 2.6
2018-Jul-11 02:00N 45°33' W 122°42'3 6.1
2018-Jul-11 01:30N 45°35' W 122°46'3 7.0
2018-Jul-11 01:01N 45°38' W 122°47'4 7.5
2018-Jul-11 00:30N 45°38' W 122°42'1 2.6
2018-Jul-11 00:00N 45°38' W 122°43'1 2.8
2018-Jul-10 23:30N 45°39' W 122°45'0 0.0
2018-Jul-10 23:00N 45°39' W 122°45'0 0.0
2018-Jul-10 22:31N 45°39' W 122°45'0 0.0
2018-Jul-10 21:59N 45°39' W 122°45'0 0.0
2018-Jul-10 21:30N 45°39' W 122°45'0 0.0
2018-Jul-10 21:00N 45°39' W 122°45'0 0.0
2018-Jul-10 20:30N 45°39' W 122°45'0 0.0
2018-Jul-10 20:01N 45°39' W 122°45'0 0.0
2018-Jul-10 19:31N 45°39' W 122°45'0 0.0
2018-Jul-10 19:00N 45°39' W 122°45'0 0.0
2018-Jul-10 18:30N 45°39' W 122°45'1 2.9
2018-Jul-10 18:00N 45°38' W 122°43'0 0.0
2018-Jul-10 17:30N 45°38' W 122°43'0 0.3
2018-Jul-10 17:00N 45°38' W 122°43'1 1.9
2018-Jul-10 16:12N 45°39' W 122°45'0 0.0
2018-Jul-10 16:00N 45°39' W 122°45'0 0.0
2018-Jul-10 15:31N 45°39' W 122°45'0 0.0
2018-Jul-10 15:01N 45°39' W 122°45'0 0.0
2018-Jul-10 14:30N 45°39' W 122°45'0 0.0
2018-Jul-10 14:00N 45°39' W 122°45'0 0.0
2018-Jul-10 13:30N 45°39' W 122°45'0 0.0
2018-Jul-10 13:00N 45°39' W 122°45'0 0.8
2018-Jul-10 12:30N 45°38' W 122°45'1 2.0
2018-Jul-10 12:00N 45°39' W 122°46'1 1.7
2018-Jul-10 11:31N 45°39' W 122°45'0 0.0
2018-Jul-10 11:01N 45°39' W 122°45'0 0.0
2018-Jul-10 10:31N 45°39' W 122°45'0 0.1
2018-Jul-10 09:41N 45°39' W 122°45'1 5.6
2018-Jul-10 09:26N 45°38' W 122°47'3 7.6
2018-Jul-10 09:00N 45°35' W 122°46'3 6.1
2018-Jul-10 08:30N 45°33' W 122°43'2 3.4
2018-Jul-10 08:00N 45°32' W 122°41'0 0.1
2018-Jul-10 07:30N 45°32' W 122°41'0 0.0
2018-Jul-10 07:00N 45°32' W 122°41'0 0.1
2018-Jul-10 06:31N 45°32' W 122°41'0 0.1
2018-Jul-10 06:00N 45°32' W 122°41'1 2.5
2018-Jul-10 05:30N 45°33' W 122°42'1 2.6
2018-Jul-10 05:00N 45°34' W 122°44'0 0.0
2018-Jul-10 04:15N 45°34' W 122°44'0 0.0
2018-Jul-10 04:01N 45°34' W 122°44'0 0.0
2018-Jul-10 03:30N 45°34' W 122°44'0 0.0
2018-Jul-10 03:00N 45°34' W 122°44'0 0.3
2018-Jul-10 02:30N 45°34' W 122°44'1 1.9
2018-Jul-10 02:01N 45°34' W 122°44'4 7.3
2018-Jul-10 01:31N 45°37' W 122°47'2 4.1
2018-Jul-10 01:00N 45°39' W 122°45'2 3.1
2018-Jul-10 00:30N 45°38' W 122°43'1 1.3
2018-Jul-10 00:00N 45°38' W 122°42'0 0.6
2018-Jul-09 23:31N 45°38' W 122°43'2 3.0
2018-Jul-09 23:00N 45°39' W 122°45'0 0.6
2018-Jul-09 22:30N 45°39' W 122°45'3 5.5
2018-Jul-09 22:00N 45°36' W 122°47'4 7.1
2018-Jul-09 21:30N 45°34' W 122°44'0 0.2
2018-Jul-09 21:00N 45°34' W 122°44'0 0.0
2018-Jul-09 20:30N 45°34' W 122°44'0 0.0
2018-Jul-09 20:01N 45°34' W 122°44'0 0.0
2018-Jul-09 19:31N 45°34' W 122°44'0 0.0
2018-Jul-09 19:00N 45°34' W 122°44'0 0.0
2018-Jul-09 18:30N 45°34' W 122°44'1 1.0
2018-Jul-09 18:01N 45°34' W 122°44'4 8.2
2018-Jul-09 17:30N 45°37' W 122°47'2 4.2
2018-Jul-09 17:01N 45°39' W 122°46'0 0.3
2018-Jul-09 16:31N 45°39' W 122°46'2 3.8
2018-Jul-09 16:00N 45°38' W 122°43'0 0.4
2018-Jul-09 15:30N 45°38' W 122°44'0 0.0
2018-Jul-09 15:00N 45°38' W 122°44'  

Dump ship's entire track history